Time;durP1;ratioP1;P1;durP2;ratioP2;P2;SDS_P1;SDS_P2;PMS_P1;PMS_P2;Temp;Humidity;BMP_temperature;BMP_pressure;BME280_temperature;BME280_humidity;BME280_pressure;Samples;Min_cycle;Max_cycle;Signal;HPM_P1;HPM_P2
2024/01/26 00:01:30;;;;;;;;;;;20.30;60.90;;;;;;7317813;19;9234;-64
2024/01/26 00:03:59;;;;;;;;;;;20.30;60.80;;;;;;7315401;19;10101;-64
2024/01/26 00:06:28;;;;;;;;;;;20.30;60.90;;;;;;7314714;19;9972;-64
2024/01/26 00:08:57;;;;;;;;;;;20.30;60.90;;;;;;7317351;19;9425;-64
2024/01/26 00:11:26;;;;;;;;;;;20.30;60.80;;;;;;7317169;19;9236;-64
2024/01/26 00:13:55;;;;;;;;;;;20.30;60.80;;;;;;7317912;19;9000;-64
2024/01/26 00:16:28;;;;;;;;;;;20.20;60.80;;;;;;7318735;19;9185;-64
2024/01/26 00:18:57;;;;;;;;;;;20.20;60.80;;;;;;7316086;19;9250;-64
2024/01/26 00:21:28;;;;;;;;;;;20.20;60.80;;;;;;7317311;19;9332;-64
2024/01/26 00:23:57;;;;;;;;;;;20.20;60.80;;;;;;7315242;19;8995;-64
2024/01/26 00:26:27;;;;;;;;;;;20.10;60.80;;;;;;7319020;19;9182;-64
2024/01/26 00:28:57;;;;;;;;;;;20.10;60.90;;;;;;7318173;19;9409;-64
2024/01/26 00:31:30;;;;;;;;;;;20.10;60.90;;;;;;7318519;19;9288;-63
2024/01/26 00:33:59;;;;;;;;;;;20.00;60.90;;;;;;7316737;19;9347;-64
2024/01/26 00:36:29;;;;;;;;;;;20.00;61.00;;;;;;7318615;19;9231;-64
2024/01/26 00:38:59;;;;;;;;;;;20.00;61.00;;;;;;7317233;19;9463;-64
2024/01/26 00:41:28;;;;;;;;;;;19.90;61.00;;;;;;7318278;19;9351;-64
2024/01/26 00:43:58;;;;;;;;;;;19.90;61.10;;;;;;7316978;19;9268;-64
2024/01/26 00:46:30;;;;;;;;;;;19.80;61.10;;;;;;7317463;19;9106;-64
2024/01/26 00:48:59;;;;;;;;;;;19.80;61.10;;;;;;7319159;19;9587;-64
2024/01/26 00:51:28;;;;;;;;;;;19.70;61.20;;;;;;7315579;19;9191;-64
2024/01/26 00:53:57;;;;;;;;;;;19.80;61.30;;;;;;7317318;19;9640;-64
2024/01/26 00:56:28;;;;;;;;;;;19.70;61.30;;;;;;7316462;19;11186;-63
2024/01/26 00:59:00;;;;;;;;;;;19.60;61.40;;;;;;7317487;19;9472;-64
2024/01/26 01:01:32;;;;;;;;;;;19.60;61.40;;;;;;7315303;19;10106;-64
2024/01/26 01:04:01;;;;;;;;;;;19.60;61.50;;;;;;7315838;19;9363;-63
2024/01/26 01:06:31;;;;;;;;;;;19.50;61.50;;;;;;7321028;19;9245;-64
2024/01/26 01:09:00;;;;;;;;;;;19.50;61.50;;;;;;7325325;19;9272;-63
2024/01/26 01:11:28;;;;;;;;;;;19.50;61.50;;;;;;7322680;19;9262;-63
2024/01/26 01:13:57;;;;;;;;;;;19.50;61.70;;;;;;7324638;19;9802;-64
2024/01/26 01:16:28;;;;;;;;;;;19.40;61.70;;;;;;7323768;19;9015;-64
2024/01/26 01:18:59;;;;;;;;;;;19.40;61.70;;;;;;7323581;19;9237;-63
2024/01/26 01:21:28;;;;;;;;;;;19.40;61.80;;;;;;7323956;19;9267;-65
2024/01/26 01:23:57;;;;;;;;;;;19.40;62.30;;;;;;7319501;19;9258;-65
2024/01/26 01:26:27;;;;;;;;;;;19.30;61.70;;;;;;7323149;19;9984;-65
2024/01/26 01:28:56;;;;;;;;;;;19.30;61.80;;;;;;7324492;19;9726;-65
2024/01/26 01:31:25;;;;;;;;;;;19.30;61.80;;;;;;7321951;19;9238;-62
2024/01/26 01:33:54;;;;;;;;;;;19.30;61.80;;;;;;7322884;19;9257;-62
2024/01/26 01:36:26;;;;;;;;;;;19.20;61.80;;;;;;7323839;19;9056;-65
2024/01/26 01:38:55;;;;;;;;;;;19.20;61.80;;;;;;7322299;19;9505;-65
2024/01/26 01:41:25;;;;;;;;;;;19.20;61.80;;;;;;7321431;19;9020;-65
2024/01/26 01:43:59;;;;;;;;;;;19.20;61.80;;;;;;7321305;19;9226;-65
2024/01/26 01:46:29;;;;;;;;;;;19.20;61.80;;;;;;7323148;19;9206;-65
2024/01/26 01:48:59;;;;;;;;;;;19.10;61.80;;;;;;7323156;19;9217;-65
2024/01/26 01:51:35;;;;;;;;;;;19.10;61.80;;;;;;7321521;19;9221;-65
2024/01/26 01:54:06;;;;;;;;;;;19.10;61.90;;;;;;7321659;19;9548;-65
2024/01/26 01:56:38;;;;;;;;;;;19.10;62.40;;;;;;7320234;19;8944;-62
2024/01/26 01:59:08;;;;;;;;;;;19.10;61.90;;;;;;7322249;19;9285;-63
2024/01/26 02:01:37;;;;;;;;;;;19.10;61.90;;;;;;7321985;19;9322;-63
2024/01/26 02:04:06;;;;;;;;;;;19.10;61.80;;;;;;7319459;19;9274;-62
2024/01/26 02:06:38;;;;;;;;;;;19.00;61.90;;;;;;7321388;19;9198;-62
2024/01/26 02:09:07;;;;;;;;;;;19.00;61.80;;;;;;7322933;19;9229;-62
2024/01/26 02:11:36;;;;;;;;;;;19.00;61.80;;;;;;7322547;19;9249;-64
2024/01/26 02:14:05;;;;;;;;;;;19.00;61.80;;;;;;7322469;19;9288;-62
2024/01/26 02:16:34;;;;;;;;;;;19.00;61.90;;;;;;7321669;19;9213;-63
2024/01/26 02:19:03;;;;;;;;;;;19.00;61.90;;;;;;7319083;19;9773;-62
2024/01/26 02:21:32;;;;;;;;;;;19.00;61.90;;;;;;7322168;19;9732;-62
2024/01/26 02:24:04;;;;;;;;;;;19.00;61.90;;;;;;7321864;19;9462;-62
2024/01/26 02:26:33;;;;;;;;;;;19.00;61.90;;;;;;7321119;19;9237;-62
2024/01/26 02:29:02;;;;;;;;;;;18.90;61.90;;;;;;7320921;19;9020;-62
2024/01/26 02:31:31;;;;;;;;;;;18.90;61.90;;;;;;7322391;19;9023;-62
2024/01/26 02:34:00;;;;;;;;;;;18.90;61.90;;;;;;7321747;19;9346;-62
2024/01/26 02:36:30;;;;;;;;;;;18.90;61.90;;;;;;7322715;19;9218;-62
2024/01/26 02:38:59;;;;;;;;;;;18.90;61.90;;;;;;7320145;19;9222;-62
2024/01/26 02:41:32;;;;;;;;;;;18.90;61.90;;;;;;7322725;19;9470;-62
2024/01/26 02:44:01;;;;;;;;;;;18.90;61.90;;;;;;7322826;19;9249;-62
2024/01/26 02:46:31;;;;;;;;;;;18.90;61.90;;;;;;7319222;19;9023;-62
2024/01/26 02:49:01;;;;;;;;;;;18.90;61.90;;;;;;7322187;19;9237;-62
2024/01/26 02:51:30;;;;;;;;;;;18.90;61.90;;;;;;7321282;19;9225;-63
2024/01/26 02:54:02;;;;;;;;;;;18.90;61.90;;;;;;7322523;19;9275;-62
2024/01/26 02:56:34;;;;;;;;;;;18.80;61.90;;;;;;7317784;19;9112;-63
2024/01/26 02:59:04;;;;;;;;;;;18.90;61.90;;;;;;7322031;19;9262;-63
2024/01/26 03:01:33;;;;;;;;;;;18.90;61.90;;;;;;7319088;19;9169;-63
2024/01/26 03:04:03;;;;;;;;;;;18.80;61.80;;;;;;7319943;19;9360;-63
2024/01/26 03:06:33;;;;;;;;;;;18.90;61.90;;;;;;7318977;19;9015;-62
2024/01/26 03:09:03;;;;;;;;;;;18.90;61.90;;;;;;7316980;19;9024;-63
2024/01/26 03:11:45;;;;;;;;;;;18.90;61.90;;;;;;7321446;19;9221;-63
2024/01/26 03:14:15;;;;;;;;;;;18.90;61.80;;;;;;7321254;19;9549;-63
2024/01/26 03:16:45;;;;;;;;;;;18.90;61.80;;;;;;7319588;19;9172;-63
2024/01/26 03:19:15;;;;;;;;;;;19.00;61.80;;;;;;7320657;19;9237;-63
2024/01/26 03:21:45;;;;;;;;;;;19.00;61.60;;;;;;7319851;19;9217;-63
2024/01/26 03:24:15;;;;;;;;;;;19.10;61.60;;;;;;7321750;19;9191;-62
2024/01/26 03:26:47;;;;;;;;;;;19.20;61.50;;;;;;7319712;19;10398;-62
2024/01/26 03:29:17;;;;;;;;;;;19.20;61.40;;;;;;7316196;19;10469;-62
2024/01/26 03:31:47;;;;;;;;;;;19.30;61.30;;;;;;7318273;19;9442;-62
2024/01/26 03:34:17;;;;;;;;;;;19.40;61.30;;;;;;7320396;19;9166;-62
2024/01/26 03:36:47;;;;;;;;;;;19.50;61.20;;;;;;7320667;19;9408;-62
2024/01/26 03:39:17;;;;;;;;;;;19.50;61.10;;;;;;7317927;19;10249;-62
2024/01/26 03:41:49;;;;;;;;;;;19.60;61.00;;;;;;7319876;19;9985;-62
2024/01/26 03:44:19;;;;;;;;;;;19.60;60.90;;;;;;7321296;19;9015;-62
2024/01/26 03:46:48;;;;;;;;;;;19.70;60.90;;;;;;7319112;19;9162;-62
2024/01/26 03:49:18;;;;;;;;;;;19.70;60.80;;;;;;7320812;19;9599;-62
2024/01/26 03:51:48;;;;;;;;;;;19.70;60.70;;;;;;7318204;19;9411;-62
2024/01/26 03:54:18;;;;;;;;;;;19.70;60.70;;;;;;7320194;19;9484;-62
2024/01/26 03:56:50;;;;;;;;;;;19.70;60.70;;;;;;7316440;19;9252;-62
2024/01/26 03:59:22;;;;;;;;;;;19.70;60.70;;;;;;7319344;19;9217;-62
2024/01/26 04:01:52;;;;;;;;;;;19.70;60.70;;;;;;7318218;19;9213;-62
2024/01/26 04:04:22;;;;;;;;;;;19.70;60.70;;;;;;7317868;19;9302;-62
2024/01/26 04:06:52;;;;;;;;;;;19.70;60.70;;;;;;7318553;19;9403;-62
2024/01/26 04:09:21;;;;;;;;;;;19.70;60.70;;;;;;7318804;19;9201;-62
2024/01/26 04:11:54;;;;;;;;;;;19.70;60.70;;;;;;7320206;19;9292;-62
2024/01/26 04:14:24;;;;;;;;;;;19.70;60.80;;;;;;7319630;19;9177;-63
2024/01/26 04:16:53;;;;;;;;;;;19.70;60.80;;;;;;7318468;19;9175;-64
2024/01/26 04:19:23;;;;;;;;;;;19.70;60.80;;;;;;7317473;19;9230;-64
2024/01/26 04:21:53;;;;;;;;;;;19.60;60.80;;;;;;7319082;19;9266;-64
2024/01/26 04:24:23;;;;;;;;;;;19.60;60.90;;;;;;7318036;19;9456;-64
2024/01/26 04:26:55;;;;;;;;;;;19.50;60.90;;;;;;7319191;19;10065;-64
2024/01/26 04:29:25;;;;;;;;;;;19.50;61.00;;;;;;7316555;19;9515;-64
2024/01/26 04:31:54;;;;;;;;;;;19.50;61.00;;;;;;7318151;19;10076;-64
2024/01/26 04:34:24;;;;;;;;;;;19.50;61.10;;;;;;7319104;19;9174;-64
2024/01/26 04:36:54;;;;;;;;;;;19.40;61.10;;;;;;7318480;19;9489;-64
2024/01/26 04:39:24;;;;;;;;;;;19.40;61.10;;;;;;7319932;19;10875;-64
2024/01/26 04:41:56;;;;;;;;;;;19.40;61.20;;;;;;7315871;19;10358;-64
2024/01/26 04:44:26;;;;;;;;;;;19.30;61.20;;;;;;7319262;19;9238;-64
2024/01/26 04:46:57;;;;;;;;;;;19.30;61.40;;;;;;7315812;19;9214;-64
2024/01/26 04:49:27;;;;;;;;;;;19.30;61.40;;;;;;7319344;19;9016;-65
2024/01/26 04:51:57;;;;;;;;;;;19.30;61.40;;;;;;7316756;19;9111;-65
2024/01/26 04:54:26;;;;;;;;;;;19.20;61.40;;;;;;7317062;19;9587;-65
2024/01/26 04:56:59;;;;;;;;;;;19.20;61.40;;;;;;7316693;19;9351;-65
2024/01/26 04:59:28;;;;;;;;;;;19.20;61.50;;;;;;7317093;19;9226;-65
2024/01/26 05:01:58;;;;;;;;;;;19.20;61.60;;;;;;7317508;19;9205;-64
2024/01/26 05:04:28;;;;;;;;;;;19.10;61.60;;;;;;7318258;19;9224;-65
2024/01/26 05:06:58;;;;;;;;;;;19.10;61.60;;;;;;7316130;19;9976;-65
2024/01/26 05:09:28;;;;;;;;;;;19.10;61.60;;;;;;7317704;19;9339;-65
2024/01/26 05:12:00;;;;;;;;;;;19.10;61.70;;;;;;7317918;19;9149;-65
2024/01/26 05:14:30;;;;;;;;;;;19.10;61.70;;;;;;7318749;19;9963;-64
2024/01/26 05:17:00;;;;;;;;;;;19.00;61.70;;;;;;7316842;19;9282;-65
2024/01/26 05:19:30;;;;;;;;;;;19.00;61.70;;;;;;7316024;19;9312;-64
2024/01/26 05:21:59;;;;;;;;;;;19.00;61.70;;;;;;7317986;19;9178;-65
2024/01/26 05:24:30;;;;;;;;;;;19.00;61.70;;;;;;7315714;19;9234;-65
2024/01/26 05:27:02;;;;;;;;;;;19.00;61.80;;;;;;7316180;19;9182;-65
2024/01/26 05:29:32;;;;;;;;;;;19.00;62.30;;;;;;7316720;19;9023;-64
2024/01/26 05:32:02;;;;;;;;;;;18.90;61.70;;;;;;7315562;19;9231;-64
2024/01/26 05:34:32;;;;;;;;;;;18.90;61.70;;;;;;7316502;19;8944;-64
2024/01/26 05:37:02;;;;;;;;;;;18.90;61.70;;;;;;7315306;19;9047;-64
2024/01/26 05:39:32;;;;;;;;;;;18.90;61.70;;;;;;7314872;19;10083;-64
2024/01/26 05:42:05;;;;;;;;;;;18.90;61.70;;;;;;7313158;19;9238;-64
2024/01/26 05:44:35;;;;;;;;;;;18.90;61.80;;;;;;7315139;19;9983;-64
2024/01/26 05:47:05;;;;;;;;;;;18.90;61.80;;;;;;7312807;19;10098;-65
2024/01/26 05:49:35;;;;;;;;;;;18.90;61.80;;;;;;7316346;19;9368;-64
2024/01/26 05:52:06;;;;;;;;;;;18.90;61.80;;;;;;7313671;19;9860;-65
2024/01/26 05:54:36;;;;;;;;;;;18.90;61.90;;;;;;7321912;19;9500;-64
2024/01/26 05:57:08;;;;;;;;;;;18.90;61.90;;;;;;7320703;19;9198;-65
2024/01/26 05:59:38;;;;;;;;;;;19.00;61.90;;;;;;7320758;19;9336;-65
2024/01/26 06:02:08;;;;;;;;;;;19.10;61.70;;;;;;7319139;19;9402;-64
2024/01/26 06:04:38;;;;;;;;;;;19.10;61.60;;;;;;7321141;19;9324;-64
2024/01/26 06:07:08;;;;;;;;;;;19.20;61.50;;;;;;7319596;19;9341;-65
2024/01/26 06:09:38;;;;;;;;;;;19.20;61.40;;;;;;7321471;19;9245;-65
2024/01/26 06:12:11;;;;;;;;;;;19.30;61.40;;;;;;7319766;19;9203;-65
2024/01/26 06:14:41;;;;;;;;;;;19.40;61.30;;;;;;7321509;19;9253;-64
2024/01/26 06:17:11;;;;;;;;;;;19.50;61.20;;;;;;7319262;19;9233;-65
2024/01/26 06:19:41;;;;;;;;;;;19.50;61.10;;;;;;7320992;19;9247;-65
2024/01/26 06:22:10;;;;;;;;;;;19.50;61.00;;;;;;7320683;19;9370;-64
2024/01/26 06:24:40;;;;;;;;;;;19.60;61.00;;;;;;7320927;19;9354;-64
2024/01/26 06:27:12;;;;;;;;;;;19.70;61.00;;;;;;7320767;19;9206;-64
2024/01/26 06:29:42;;;;;;;;;;;19.70;60.90;;;;;;7321983;19;9199;-64
2024/01/26 06:32:12;;;;;;;;;;;19.70;60.80;;;;;;7314202;19;9015;-64
2024/01/26 06:34:42;;;;;;;;;;;19.70;60.80;;;;;;7320676;19;9573;-65
2024/01/26 06:37:12;;;;;;;;;;;19.70;60.80;;;;;;7319798;19;9251;-65
2024/01/26 06:39:41;;;;;;;;;;;19.70;61.40;;;;;;7321886;19;9296;-64
2024/01/26 06:42:14;;;;;;;;;;;19.80;60.80;;;;;;7319267;19;9257;-65
2024/01/26 06:44:43;;;;;;;;;;;19.70;60.80;;;;;;7320936;19;9486;-65
2024/01/26 06:47:13;;;;;;;;;;;19.70;60.80;;;;;;7317911;19;9221;-65
2024/01/26 06:49:43;;;;;;;;;;;19.70;60.80;;;;;;7320492;19;9576;-65
2024/01/26 06:52:13;;;;;;;;;;;19.70;60.90;;;;;;7280657;19;10003;-65
2024/01/26 06:54:43;;;;;;;;;;;19.70;60.90;;;;;;7318914;19;9296;-63
2024/01/26 06:57:15;;;;;;;;;;;19.70;61.00;;;;;;7319971;19;9098;-65
2024/01/26 06:59:45;;;;;;;;;;;19.70;61.00;;;;;;7276440;19;9323;-64
2024/01/26 07:02:15;;;;;;;;;;;19.70;61.10;;;;;;7309136;19;9210;-64
2024/01/26 07:04:45;;;;;;;;;;;19.60;61.10;;;;;;7317748;19;9233;-64
2024/01/26 07:07:14;;;;;;;;;;;19.60;61.10;;;;;;7320413;19;9233;-64
2024/01/26 07:09:44;;;;;;;;;;;19.60;61.10;;;;;;7319625;19;9167;-64
2024/01/26 07:12:16;;;;;;;;;;;19.60;61.80;;;;;;7316382;19;9794;-64
2024/01/26 07:14:46;;;;;;;;;;;19.60;61.20;;;;;;7318485;19;9202;-64
2024/01/26 07:17:17;;;;;;;;;;;19.60;61.20;;;;;;7320280;19;9139;-63
2024/01/26 07:19:47;;;;;;;;;;;19.50;61.20;;;;;;7317667;19;9514;-63
2024/01/26 07:22:16;;;;;;;;;;;19.50;61.40;;;;;;7318447;19;10103;-64
2024/01/26 07:24:46;;;;;;;;;;;19.50;61.50;;;;;;7320704;19;9413;-64
2024/01/26 07:27:18;;;;;;;;;;;19.50;61.50;;;;;;7318323;19;9362;-63
2024/01/26 07:29:48;;;;;;;;;;;19.50;61.80;;;;;;7317812;19;9221;-63
2024/01/26 07:32:18;;;;;;;;;;;19.40;61.80;;;;;;7319590;19;9195;-63
2024/01/26 07:34:48;;;;;;;;;;;19.40;61.80;;;;;;7318369;19;9518;-64
2024/01/26 07:37:18;;;;;;;;;;;19.30;61.90;;;;;;7319260;19;9540;-63
2024/01/26 07:39:47;;;;;;;;;;;19.30;61.90;;;;;;7320798;19;10926;-64
2024/01/26 07:42:20;;;;;;;;;;;19.30;62.00;;;;;;7318523;19;9297;-63
2024/01/26 07:44:50;;;;;;;;;;;19.30;62.10;;;;;;7319865;19;9273;-63
2024/01/26 07:47:20;;;;;;;;;;;19.20;62.20;;;;;;7318920;19;9262;-63
2024/01/26 07:49:50;;;;;;;;;;;19.20;62.20;;;;;;7319525;19;9256;-63
2024/01/26 07:52:21;;;;;;;;;;;19.10;62.20;;;;;;7318053;19;9202;-63
2024/01/26 07:54:53;;;;;;;;;;;19.10;62.30;;;;;;7318064;19;9213;-64
2024/01/26 07:57:26;;;;;;;;;;;19.10;62.30;;;;;;7321117;19;9071;-63
2024/01/26 07:59:56;;;;;;;;;;;19.10;62.20;;;;;;7315654;19;9281;-63
2024/01/26 08:02:26;;;;;;;;;;;19.10;62.40;;;;;;7317463;19;9243;-63
2024/01/26 08:04:56;;;;;;;;;;;19.10;62.40;;;;;;7318114;19;9307;-63
2024/01/26 08:07:26;;;;;;;;;;;19.00;62.30;;;;;;7319849;19;9403;-63
2024/01/26 08:09:56;;;;;;;;;;;19.00;62.50;;;;;;7317394;19;9240;-63
2024/01/26 08:12:28;;;;;;;;;;;19.00;62.50;;;;;;7318592;19;9255;-64
2024/01/26 08:14:58;;;;;;;;;;;19.00;62.50;;;;;;7314311;19;9234;-63
2024/01/26 08:17:28;;;;;;;;;;;19.00;62.50;;;;;;7318588;19;9239;-63
2024/01/26 08:19:58;;;;;;;;;;;19.00;62.40;;;;;;7318428;19;9251;-63
2024/01/26 08:22:28;;;;;;;;;;;18.90;62.50;;;;;;7318348;19;9212;-63
2024/01/26 08:24:58;;;;;;;;;;;18.90;62.50;;;;;;7318786;19;9581;-64
2024/01/26 08:27:31;;;;;;;;;;;18.90;62.60;;;;;;7316990;19;9235;-63
2024/01/26 08:30:00;;;;;;;;;;;18.90;62.60;;;;;;7319472;19;9213;-63
2024/01/26 08:32:30;;;;;;;;;;;18.90;62.60;;;;;;7317510;19;9210;-64
2024/01/26 08:35:00;;;;;;;;;;;18.90;62.60;;;;;;7317205;19;9209;-63
2024/01/26 08:37:30;;;;;;;;;;;18.90;62.60;;;;;;7314951;19;9205;-63
2024/01/26 08:40:00;;;;;;;;;;;19.00;62.60;;;;;;7317098;19;9205;-63
2024/01/26 08:42:32;;;;;;;;;;;19.00;62.60;;;;;;7319104;19;9616;-64
2024/01/26 08:45:02;;;;;;;;;;;19.10;62.30;;;;;;7317283;19;10003;-63
2024/01/26 08:47:32;;;;;;;;;;;19.20;62.20;;;;;;7318219;19;9061;-64
2024/01/26 08:50:02;;;;;;;;;;;19.20;62.10;;;;;;7315604;19;9066;-64
2024/01/26 08:52:32;;;;;;;;;;;19.30;62.00;;;;;;7318276;19;9444;-63
2024/01/26 08:55:02;;;;;;;;;;;19.40;62.00;;;;;;7317790;19;9542;-64
2024/01/26 08:57:34;;;;;;;;;;;19.40;61.90;;;;;;7317357;19;9290;-63
2024/01/26 09:00:08;;;;;;;;;;;19.50;61.80;;;;;;7317120;19;9162;-64
2024/01/26 09:02:38;;;;;;;;;;;19.60;61.80;;;;;;7315346;19;9247;-65
2024/01/26 09:05:09;;;;;;;;;;;19.70;61.70;;;;;;7316185;19;9263;-63
2024/01/26 09:07:39;;;;;;;;;;;19.70;61.60;;;;;;7316333;19;9229;-64
2024/01/26 09:10:10;;;;;;;;;;;19.70;61.60;;;;;;7315321;19;9027;-64
2024/01/26 09:12:42;;;;;;;;;;;19.70;61.60;;;;;;7315976;19;9027;-64
2024/01/26 09:15:12;;;;;;;;;;;19.70;61.50;;;;;;7316049;19;9249;-63
2024/01/26 09:17:42;;;;;;;;;;;19.70;61.70;;;;;;7315648;19;9254;-64
2024/01/26 09:20:14;;;;;;;;;;;19.70;61.60;;;;;;7318032;19;9417;-63
2024/01/26 09:22:44;;;;;;;;;;;19.70;61.70;;;;;;7314531;19;9226;-63
2024/01/26 09:25:13;;;;;;;;;;;19.70;61.60;;;;;;7315576;19;9166;-64
2024/01/26 09:27:46;;;;;;;;;;;19.70;61.80;;;;;;7313264;19;9265;-64
2024/01/26 09:30:16;;;;;;;;;;;19.70;61.80;;;;;;7320229;19;9054;-64
2024/01/26 09:32:46;;;;;;;;;;;19.70;61.80;;;;;;7320763;19;10069;-64
2024/01/26 09:35:16;;;;;;;;;;;19.70;62.00;;;;;;7321783;19;9081;-63
2024/01/26 09:37:46;;;;;;;;;;;19.70;62.00;;;;;;7319703;19;9652;-63
2024/01/26 09:40:16;;;;;;;;;;;19.60;62.60;;;;;;7321651;19;9103;-63
2024/01/26 09:42:49;;;;;;;;;;;19.60;62.10;;;;;;7321811;19;9305;-63
2024/01/26 09:45:20;;;;;;;;;;;19.60;62.20;;;;;;7318007;19;9238;-63
2024/01/26 09:47:54;;;;;;;;;;;19.60;62.40;;;;;;7318957;19;9493;-63
2024/01/26 09:50:25;;;;;;;;;;;19.60;62.40;;;;;;7319597;19;9237;-64
2024/01/26 09:53:00;;;;;;;;;;;19.50;62.40;;;;;;7321346;19;9183;-65
2024/01/26 09:55:30;;;;;;;;;;;19.50;62.50;;;;;;7323511;19;9254;-65
2024/01/26 09:58:03;;;;;;;;;;;19.50;62.50;;;;;;7319850;19;9249;-64
2024/01/26 10:00:30;;;;;;;;;;;19.40;62.50;;;;;;7321499;19;9287;-64
2024/01/26 10:03:00;;;;;;;;;;;19.40;62.60;;;;;;7321007;19;9189;-63
2024/01/26 10:05:30;;;;;;;;;;;19.40;62.70;;;;;;7321917;19;9214;-65
2024/01/26 10:08:00;;;;;;;;;;;19.40;62.70;;;;;;7320416;19;9241;-65
2024/01/26 10:10:30;;;;;;;;;;;19.30;62.70;;;;;;7321413;19;9207;-65
2024/01/26 10:13:02;;;;;;;;;;;19.30;62.70;;;;;;7320491;19;9241;-65
2024/01/26 10:15:35;;;;;;;;;;;19.30;62.80;;;;;;7320897;19;9207;-66
2024/01/26 10:18:05;;;;;;;;;;;19.30;62.80;;;;;;7320468;19;9225;-64
2024/01/26 10:20:35;;;;;;;;;;;19.20;62.80;;;;;;7322729;19;9450;-64
2024/01/26 10:23:08;;;;;;;;;;;19.20;62.80;;;;;;7320041;19;10157;-65
2024/01/26 10:25:38;;;;;;;;;;;19.20;62.90;;;;;;7321332;19;9185;-63
2024/01/26 10:28:15;;;;;;;;;;;19.20;62.90;;;;;;7320699;19;9060;-63
2024/01/26 10:30:46;;;;;;;;;;;19.10;62.90;;;;;;7318549;19;9209;-63
2024/01/26 10:33:16;;;;;;;;;;;19.10;62.90;;;;;;7318512;19;9292;-64
2024/01/26 10:35:48;;;;;;;;;;;19.10;63.00;;;;;;7319513;19;9969;-63
2024/01/26 10:38:19;;;;;;;;;;;19.10;63.60;;;;;;7321362;19;9244;-64
2024/01/26 10:40:48;;;;;;;;;;;19.10;63.10;;;;;;7319425;19;9678;-63
2024/01/26 10:43:21;;;;;;;;;;;19.00;62.90;;;;;;7321376;19;9257;-63
2024/01/26 10:45:51;;;;;;;;;;;19.00;62.90;;;;;;7318370;19;9755;-63
2024/01/26 10:48:22;;;;;;;;;;;19.10;63.00;;;;;;7317806;19;9245;-64
2024/01/26 10:50:51;;;;;;;;;;;19.00;62.90;;;;;;7318938;19;10231;-65
2024/01/26 10:53:21;;;;;;;;;;;19.00;62.90;;;;;;7317625;19;9236;-64
2024/01/26 10:55:52;;;;;;;;;;;19.00;62.90;;;;;;7315999;19;9307;-62
2024/01/26 10:58:23;;;;;;;;;;;19.00;62.90;;;;;;7301610;19;10026;-69
2024/01/26 11:00:54;;;;;;;;;;;18.90;62.90;;;;;;7299746;19;10317;-65
2024/01/26 11:03:23;;;;;;;;;;;19.00;63.00;;;;;;7314838;19;9976;-64
2024/01/26 11:05:52;;;;;;;;;;;19.00;63.10;;;;;;7317257;19;9299;-65
2024/01/26 11:08:26;;;;;;;;;;;19.00;63.70;;;;;;7311272;19;9961;-66
2024/01/26 11:10:57;;;;;;;;;;;19.00;63.10;;;;;;7315207;19;9016;-63
2024/01/26 11:13:29;;;;;;;;;;;19.00;63.20;;;;;;7317304;19;9012;-65
2024/01/26 11:16:06;;;;;;;;;;;19.00;63.10;;;;;;7314070;19;9249;-65
2024/01/26 11:18:38;;;;;;;;;;;19.00;63.00;;;;;;7316659;19;9236;-63
2024/01/26 11:21:08;;;;;;;;;;;19.00;62.90;;;;;;7315764;19;9207;-63
2024/01/26 11:23:44;;;;;;;;;;;19.10;62.90;;;;;;7319546;19;9626;-61
2024/01/26 11:26:17;;;;;;;;;;;19.10;62.80;;;;;;7318521;19;9024;-69
2024/01/26 11:28:50;;;;;;;;;;;19.20;62.60;;;;;;7316617;19;9482;-65
2024/01/26 11:31:30;;;;;;;;;;;19.20;62.40;;;;;;7316965;19;9262;-64
2024/01/26 11:34:00;;;;;;;;;;;19.30;62.20;;;;;;7317616;19;9221;-62
2024/01/26 11:36:34;;;;;;;;;;;19.40;62.20;;;;;;7315234;19;9106;-63
2024/01/26 11:39:05;;;;;;;;;;;19.40;62.20;;;;;;7317156;19;9259;-64
2024/01/26 11:41:36;;;;;;;;;;;19.50;62.10;;;;;;7316023;19;10307;-64
2024/01/26 11:44:19;;;;;;;;;;;19.60;62.10;;;;;;7312229;19;9227;-64
2024/01/26 11:46:49;;;;;;;;;;;19.60;61.90;;;;;;7311035;19;9565;-65
2024/01/26 11:49:19;;;;;;;;;;;19.70;61.80;;;;;;7316781;19;10020;-65
2024/01/26 11:51:49;;;;;;;;;;;19.80;61.80;;;;;;7314369;19;9254;-61
2024/01/26 11:54:22;;;;;;;;;;;19.80;61.80;;;;;;7319255;19;9097;-64
2024/01/26 11:56:52;;;;;;;;;;;19.80;61.60;;;;;;7311918;19;9555;-63
2024/01/26 11:59:24;;;;;;;;;;;19.80;61.50;;;;;;7317035;19;9264;-60
2024/01/26 12:01:55;;;;;;;;;;;19.80;61.60;;;;;;7317955;19;9043;-61
2024/01/26 12:04:26;;;;;;;;;;;19.80;61.50;;;;;;7316066;19;9319;-61
2024/01/26 12:06:56;;;;;;;;;;;19.80;61.40;;;;;;7316971;19;9381;-64
2024/01/26 12:09:26;;;;;;;;;;;19.80;61.40;;;;;;7312737;19;8948;-63
2024/01/26 12:11:57;;;;;;;;;;;19.80;61.40;;;;;;7293791;19;9398;-63
2024/01/26 12:14:29;;;;;;;;;;;19.80;62.00;;;;;;7318397;19;9186;-63
2024/01/26 12:16:59;;;;;;;;;;;19.80;61.40;;;;;;7318340;19;9384;-64
2024/01/26 12:19:30;;;;;;;;;;;19.80;61.40;;;;;;7314787;19;9972;-62
2024/01/26 12:22:00;;;;;;;;;;;19.80;61.50;;;;;;7318092;19;9225;-61
2024/01/26 12:24:29;;;;;;;;;;;19.70;61.50;;;;;;7317109;19;9245;-63
2024/01/26 12:26:58;;;;;;;;;;;19.70;61.50;;;;;;7317488;19;9206;-62
2024/01/26 12:29:29;;;;;;;;;;;19.70;61.40;;;;;;7317811;19;9399;-61
2024/01/26 12:32:04;;;;;;;;;;;19.70;61.30;;;;;;7318168;19;9327;-60
2024/01/26 12:34:34;;;;;;;;;;;19.60;61.30;;;;;;7317706;19;9178;-66
2024/01/26 12:37:04;;;;;;;;;;;19.60;61.50;;;;;;7314288;19;9420;-63
2024/01/26 12:39:33;;;;;;;;;;;19.60;61.50;;;;;;7317475;19;9560;-62
2024/01/26 12:42:02;;;;;;;;;;;19.60;61.60;;;;;;7315746;19;9213;-64
2024/01/26 12:44:36;;;;;;;;;;;19.50;61.60;;;;;;7317926;19;9163;-63
2024/01/26 12:47:06;;;;;;;;;;;19.60;61.80;;;;;;7315268;19;9284;-63
2024/01/26 12:49:37;;;;;;;;;;;19.50;61.80;;;;;;7313483;19;9282;-64
2024/01/26 12:52:07;;;;;;;;;;;19.50;61.80;;;;;;7317041;19;9614;-63
2024/01/26 12:54:36;;;;;;;;;;;19.50;61.70;;;;;;7313506;19;9209;-63
2024/01/26 12:57:06;;;;;;;;;;;19.50;61.90;;;;;;7313260;19;8948;-64
2024/01/26 12:59:39;;;;;;;;;;;19.40;62.00;;;;;;7314371;19;9230;-60
2024/01/26 13:02:09;;;;;;;;;;;19.40;62.00;;;;;;7319477;19;8940;-60
2024/01/26 13:04:38;;;;;;;;;;;19.40;61.80;;;;;;7321756;19;9269;-60
2024/01/26 13:07:07;;;;;;;;;;;19.40;61.90;;;;;;7323373;19;9218;-60
2024/01/26 13:09:36;;;;;;;;;;;19.30;61.80;;;;;;7320090;19;9531;-61
2024/01/26 13:12:07;;;;;;;;;;;19.30;61.90;;;;;;7321870;19;9198;-61
2024/01/26 13:14:39;;;;;;;;;;;19.30;61.90;;;;;;7320966;19;9103;-61
2024/01/26 13:17:08;;;;;;;;;;;19.30;62.00;;;;;;7323264;19;9174;-61
2024/01/26 13:19:38;;;;;;;;;;;19.30;62.10;;;;;;7319166;19;9670;-60
2024/01/26 13:22:08;;;;;;;;;;;19.20;62.10;;;;;;7321132;19;9515;-60
2024/01/26 13:24:38;;;;;;;;;;;19.30;62.10;;;;;;7321368;19;9262;-60
2024/01/26 13:27:08;;;;;;;;;;;19.20;62.10;;;;;;7322579;19;9161;-60
2024/01/26 13:29:40;;;;;;;;;;;19.20;62.10;;;;;;7320973;19;8956;-60
2024/01/26 13:32:11;;;;;;;;;;;19.20;62.20;;;;;;7318941;19;9603;-60
2024/01/26 13:34:41;;;;;;;;;;;19.20;62.20;;;;;;7322468;19;9342;-60
2024/01/26 13:37:11;;;;;;;;;;;19.20;62.30;;;;;;7320484;19;9239;-60
2024/01/26 13:39:41;;;;;;;;;;;19.20;62.20;;;;;;7321496;19;9210;-60
2024/01/26 13:42:12;;;;;;;;;;;19.20;62.30;;;;;;7319529;19;9435;-60
2024/01/26 13:44:47;;;;;;;;;;;19.20;62.30;;;;;;7323334;19;9203;-60
2024/01/26 13:47:17;;;;;;;;;;;19.20;62.30;;;;;;7320158;19;9282;-60
2024/01/26 13:49:52;;;;;;;;;;;19.10;62.30;;;;;;7320413;19;9073;-60
2024/01/26 13:52:22;;;;;;;;;;;19.20;62.30;;;;;;7321360;19;9312;-60
2024/01/26 13:54:52;;;;;;;;;;;19.10;62.30;;;;;;7320837;19;9269;-60
2024/01/26 13:57:22;;;;;;;;;;;19.10;62.20;;;;;;7323329;19;9072;-60
2024/01/26 13:59:54;;;;;;;;;;;19.10;62.20;;;;;;7321565;19;9237;-60
2024/01/26 14:02:24;;;;;;;;;;;19.10;62.20;;;;;;7317126;19;9222;-60
2024/01/26 14:04:54;;;;;;;;;;;19.20;62.20;;;;;;7320657;19;9220;-60
2024/01/26 14:07:24;;;;;;;;;;;19.20;62.20;;;;;;7321350;19;9385;-60
2024/01/26 14:09:53;;;;;;;;;;;19.20;62.20;;;;;;7320270;19;9726;-60
2024/01/26 14:12:23;;;;;;;;;;;19.20;62.10;;;;;;7318026;19;9314;-60
2024/01/26 14:14:56;;;;;;;;;;;19.20;62.10;;;;;;7318584;19;9015;-60
2024/01/26 14:17:26;;;;;;;;;;;19.30;62.10;;;;;;7318747;19;9505;-59
2024/01/26 14:19:56;;;;;;;;;;;19.30;62.00;;;;;;7321058;19;9170;-60
2024/01/26 14:22:26;;;;;;;;;;;19.30;62.00;;;;;;7316067;19;9588;-60
2024/01/26 14:24:56;;;;;;;;;;;19.30;61.90;;;;;;7317831;19;9249;-60
2024/01/26 14:27:26;;;;;;;;;;;19.30;61.90;;;;;;7319527;19;10238;-60
2024/01/26 14:29:58;;;;;;;;;;;19.30;61.90;;;;;;7318167;19;9178;-60
2024/01/26 14:32:28;;;;;;;;;;;19.30;61.90;;;;;;7319415;19;9229;-61
2024/01/26 14:34:58;;;;;;;;;;;19.30;61.80;;;;;;7317680;19;9382;-61
2024/01/26 14:37:28;;;;;;;;;;;19.30;61.80;;;;;;7316604;19;9470;-60
2024/01/26 14:39:58;;;;;;;;;;;19.30;61.80;;;;;;7321368;19;9561;-61
2024/01/26 14:42:27;;;;;;;;;;;19.30;61.70;;;;;;7318079;19;9570;-61
2024/01/26 14:44:59;;;;;;;;;;;19.30;61.70;;;;;;7319149;19;9249;-61
2024/01/26 14:47:28;;;;;;;;;;;19.30;61.60;;;;;;7321487;19;9491;-60